createdAt,value
2022-12-09T00:00:07.283Z,96282.16
2022-12-09T00:02:34.034Z,96269.06
2022-12-09T00:05:01.119Z,96268.34
2022-12-09T00:07:27.642Z,96264.78
2022-12-09T00:09:54.047Z,96271.00
2022-12-09T00:12:20.480Z,96259.84
2022-12-09T00:14:47.033Z,96263.41
2022-12-09T00:17:13.586Z,96264.13
2022-12-09T00:19:40.144Z,96261.41
2022-12-09T00:22:06.548Z,96248.75
2022-12-09T00:24:32.997Z,96247.75
2022-12-09T00:26:59.744Z,96251.28
2022-12-09T00:29:26.272Z,96251.63
2022-12-09T00:31:52.802Z,96247.56
2022-12-09T00:34:19.379Z,96242.91
2022-12-09T00:36:46.054Z,96237.63
2022-12-09T00:39:12.852Z,96238.81
2022-12-09T00:41:39.589Z,96242.03
2022-12-09T00:44:06.335Z,96239.28
2022-12-09T00:46:34.021Z,96242.03
2022-12-09T00:49:00.670Z,96248.19
2022-12-09T00:51:27.584Z,96247.94
2022-12-09T00:53:55.933Z,96248.38
2022-12-09T00:56:24.276Z,96249.38
2022-12-09T00:58:50.710Z,96242.56
2022-12-09T01:01:17.444Z,96245.56
2022-12-09T01:03:44.550Z,96239.38
2022-12-09T01:06:14.307Z,96247.47
2022-12-09T01:08:42.909Z,96251.09
2022-12-09T01:11:12.196Z,96251.84
2022-12-09T01:13:39.091Z,96254.47
2022-12-09T01:16:14.050Z,96250.91
2022-12-09T01:18:40.471Z,96262.66
2022-12-09T01:21:07.245Z,96260.47
2022-12-09T01:23:33.691Z,96262.47
2022-12-09T01:26:00.506Z,96259.13
2022-12-09T01:28:27.003Z,96249.94
2022-12-09T01:30:53.729Z,96248.91
2022-12-09T01:33:20.345Z,96262.63
2022-12-09T01:35:47.578Z,96260.72
2022-12-09T01:38:15.468Z,96247.56
2022-12-09T01:40:46.485Z,96247.56
2022-12-09T01:43:18.556Z,96243.31
2022-12-09T01:45:45.786Z,96245.94
2022-12-09T01:48:15.095Z,96246.84
2022-12-09T01:50:58.492Z,96240.53
2022-12-09T01:53:30.496Z,96236.53
2022-12-09T01:56:01.069Z,96225.88
2022-12-09T01:58:28.421Z,96224.00
2022-12-09T02:00:55.492Z,96221.34
2022-12-09T02:03:22.391Z,96210.22
2022-12-09T02:05:49.364Z,96210.38
2022-12-09T02:08:18.849Z,96210.16
2022-12-09T02:11:23.174Z,96202.56
2022-12-09T02:14:03.403Z,96202.34
2022-12-09T02:16:44.208Z,96200.19
2022-12-09T02:19:53.020Z,96198.16
2022-12-09T02:22:31.900Z,96199.56
2022-12-09T02:25:04.467Z,96186.84
2022-12-09T02:27:37.708Z,96183.47
2022-12-09T02:30:22.653Z,96193.50
2022-12-09T02:33:26.624Z,96190.84
2022-12-09T02:36:17.250Z,96173.84
2022-12-09T02:38:45.634Z,96169.84
2022-12-09T02:41:19.622Z,96179.38
2022-12-09T02:43:53.789Z,96175.06
2022-12-09T02:46:27.735Z,96172.47
2022-12-09T02:48:58.534Z,96165.50
2022-12-09T02:51:29.803Z,96172.00
2022-12-09T02:54:07.495Z,96165.53
2022-12-09T02:56:35.650Z,96159.91
2022-12-09T02:59:02.631Z,96162.41
2022-12-09T03:01:43.190Z,96153.66
2022-12-09T03:04:16.971Z,96160.16
2022-12-09T03:06:50.491Z,96153.13
2022-12-09T03:09:27.462Z,96148.63
2022-12-09T03:11:56.286Z,96155.25
2022-12-09T03:14:31.316Z,96148.44
2022-12-09T03:17:18.024Z,96146.78
2022-12-09T03:19:48.963Z,96136.06
2022-12-09T03:22:18.125Z,96133.75
2022-12-09T03:24:54.398Z,96134.25
2022-12-09T03:27:28.515Z,96131.81
2022-12-09T03:29:57.016Z,96135.06
2022-12-09T03:32:26.775Z,96126.94
2022-12-09T03:35:01.730Z,96134.06
2022-12-09T03:37:29.088Z,96131.19
2022-12-09T03:39:58.551Z,96130.97
2022-12-09T03:42:36.956Z,96131.41
2022-12-09T03:45:07.652Z,96127.88
2022-12-09T03:47:34.262Z,96126.88
2022-12-09T03:50:01.061Z,96108.88
2022-12-09T03:52:49.508Z,96119.34
2022-12-09T03:55:38.171Z,96118.69
2022-12-09T03:58:07.191Z,96124.31
2022-12-09T04:00:38.096Z,96124.50
2022-12-09T04:03:06.951Z,96129.78
2022-12-09T04:05:33.842Z,96124.13
2022-12-09T04:08:00.578Z,96119.66
2022-12-09T04:10:27.655Z,96122.38
2022-12-09T04:12:54.444Z,96121.78
2022-12-09T04:15:20.979Z,96118.53
2022-12-09T04:17:47.608Z,96120.03
2022-12-09T04:20:14.864Z,96115.59
2022-12-09T04:22:42.129Z,96118.78
2022-12-09T04:25:09.393Z,96115.31
2022-12-09T04:27:35.925Z,96110.84
2022-12-09T04:30:02.499Z,96105.56
2022-12-09T04:32:30.516Z,96094.63
2022-12-09T04:34:57.348Z,96081.16
2022-12-09T04:37:24.008Z,96085.09
2022-12-09T04:39:50.455Z,96070.63
2022-12-09T04:42:17.032Z,96079.72
2022-12-09T04:44:43.622Z,96070.06
2022-12-09T04:47:10.505Z,96069.91
2022-12-09T04:49:37.501Z,96078.22
2022-12-09T04:52:04.061Z,96063.41
2022-12-09T04:54:30.478Z,96060.44
2022-12-09T04:56:57.039Z,96056.97
2022-12-09T04:59:23.721Z,96056.53
2022-12-09T05:01:50.313Z,96058.50
2022-12-09T05:04:17.252Z,96055.16
2022-12-09T05:06:44.213Z,96046.91
2022-12-09T05:09:13.267Z,96053.44
2022-12-09T05:11:40.967Z,96047.53
2022-12-09T05:14:07.873Z,96042.16
2022-12-09T05:16:34.984Z,96035.53
2022-12-09T05:19:01.729Z,96047.97
2022-12-09T05:21:28.711Z,96035.72
2022-12-09T05:23:55.373Z,96036.19
2022-12-09T05:26:23.471Z,96032.28
2022-12-09T05:28:51.171Z,96038.53
2022-12-09T05:31:20.949Z,96034.53
2022-12-09T05:33:48.983Z,96038.44
2022-12-09T05:36:18.306Z,96035.16
2022-12-09T05:38:45.190Z,96036.34
2022-12-09T05:41:12.800Z,96028.88
2022-12-09T05:43:40.278Z,96024.25
2022-12-09T05:46:07.966Z,96022.25
2022-12-09T05:48:35.316Z,96021.34
2022-12-09T05:51:14.315Z,96020.47
2022-12-09T05:53:40.979Z,96018.34
2022-12-09T05:56:08.373Z,96025.66
2022-12-09T05:58:35.124Z,96015.97
2022-12-09T06:01:08.799Z,96013.63
2022-12-09T06:03:36.663Z,96014.97
2022-12-09T06:06:09.466Z,96009.63
2022-12-09T06:08:37.098Z,96015.38
2022-12-09T06:11:05.106Z,96018.97
2022-12-09T06:13:32.231Z,96004.72
2022-12-09T06:16:04.340Z,96001.25
2022-12-09T06:18:31.514Z,96010.00
2022-12-09T06:20:58.547Z,96011.63
2022-12-09T06:23:25.415Z,96004.34
2022-12-09T06:25:51.991Z,96001.19
2022-12-09T06:28:19.661Z,96003.81
2022-12-09T06:30:46.435Z,96004.34
2022-12-09T06:33:36.924Z,95997.44
2022-12-09T06:36:03.476Z,95996.44
2022-12-09T06:38:30.154Z,95990.19
2022-12-09T06:40:57.096Z,95997.00
2022-12-09T06:43:23.646Z,96002.44
2022-12-09T06:45:50.172Z,96009.19
2022-12-09T06:48:16.826Z,96010.19
2022-12-09T06:50:44.179Z,96001.16
2022-12-09T06:53:10.837Z,96008.56
2022-12-09T06:55:37.391Z,95999.25
2022-12-09T06:58:04.301Z,96005.00
2022-12-09T07:00:32.514Z,96003.91
2022-12-09T07:02:59.433Z,96004.06
2022-12-09T07:05:26.802Z,95998.44
2022-12-09T07:07:54.073Z,96002.34
2022-12-09T07:10:21.514Z,96008.56
2022-12-09T07:12:48.272Z,96005.34
2022-12-09T07:15:15.288Z,95994.69
2022-12-09T07:17:42.242Z,95985.59
2022-12-09T07:20:09.668Z,95995.13
2022-12-09T07:22:37.041Z,95996.19
2022-12-09T07:25:04.478Z,95994.53
2022-12-09T07:27:31.571Z,95988.44
2022-12-09T07:29:58.423Z,95985.91
2022-12-09T07:32:25.227Z,95990.38
2022-12-09T07:34:51.972Z,95991.38
2022-12-09T07:37:18.830Z,95988.53
2022-12-09T07:39:45.509Z,95983.16
2022-12-09T07:42:12.595Z,95992.72
2022-12-09T07:44:49.154Z,95991.41
2022-12-09T07:47:15.796Z,95987.06
2022-12-09T07:49:42.364Z,95995.69
2022-12-09T07:52:09.054Z,95995.44
2022-12-09T07:54:35.583Z,95994.50
2022-12-09T07:57:02.352Z,95991.19
2022-12-09T07:59:29.032Z,95992.94
2022-12-09T08:01:58.762Z,95988.56
2022-12-09T08:04:28.187Z,95984.97
2022-12-09T08:06:54.984Z,95988.84
2022-12-09T08:09:21.990Z,95988.91
2022-12-09T08:11:48.801Z,95988.28
2022-12-09T08:14:16.253Z,95987.69
2022-12-09T08:16:43.587Z,95987.13
2022-12-09T08:19:12.036Z,95986.16
2022-12-09T08:21:39.838Z,95982.16
2022-12-09T08:24:07.759Z,95982.66
2022-12-09T08:26:37.499Z,95975.81
2022-12-09T08:29:08.282Z,95975.59
2022-12-09T08:31:40.587Z,95977.16
2022-12-09T08:34:08.998Z,95972.28
2022-12-09T08:36:36.957Z,95962.34
2022-12-09T08:39:04.215Z,95970.13
2022-12-09T08:41:38.540Z,95963.03
2022-12-09T08:44:15.421Z,95956.09
2022-12-09T08:46:44.777Z,95956.09
2022-12-09T08:49:11.994Z,95959.00
2022-12-09T08:51:39.742Z,95950.41
2022-12-09T08:54:06.971Z,95957.38
2022-12-09T08:56:34.438Z,95951.88
2022-12-09T08:59:01.347Z,95956.97
2022-12-09T09:01:32.963Z,95952.66
2022-12-09T09:04:16.357Z,95945.13
2022-12-09T09:06:45.919Z,95943.06
2022-12-09T09:09:14.301Z,95943.28
2022-12-09T09:11:42.086Z,95938.41
2022-12-09T09:14:11.657Z,95939.81
2022-12-09T09:16:41.261Z,95945.72
2022-12-09T09:19:13.502Z,95933.28
2022-12-09T09:21:40.154Z,95929.59
2022-12-09T09:24:16.128Z,95934.09
2022-12-09T09:26:43.520Z,95936.31
2022-12-09T09:29:12.608Z,95941.00
2022-12-09T09:31:39.954Z,95936.31
2022-12-09T09:34:07.468Z,95936.13
2022-12-09T09:36:35.493Z,95933.66
2022-12-09T09:39:02.300Z,95933.19
2022-12-09T09:41:52.672Z,95934.44
2022-12-09T09:44:36.911Z,95926.66
2022-12-09T09:47:16.800Z,95926.66
2022-12-09T09:49:53.541Z,95919.91
2022-12-09T09:52:26.814Z,95921.94
2022-12-09T09:54:55.083Z,95921.34
2022-12-09T09:57:47.233Z,95913.59
2022-12-09T10:00:26.482Z,95912.16
2022-12-09T10:03:15.074Z,95907.47
2022-12-09T10:05:54.098Z,95907.81
2022-12-09T10:08:27.844Z,95909.44
2022-12-09T10:11:11.148Z,95904.34
2022-12-09T10:13:51.772Z,95903.91
2022-12-09T10:16:21.075Z,95899.00
2022-12-09T10:19:06.021Z,95906.69
2022-12-09T10:21:40.251Z,95903.19
2022-12-09T10:24:19.069Z,95899.28
2022-12-09T10:26:54.474Z,95897.56
2022-12-09T10:29:35.622Z,95899.50
2022-12-09T10:32:02.967Z,95895.63
2022-12-09T10:34:30.290Z,95894.69
2022-12-09T10:36:57.229Z,95894.91
2022-12-09T10:39:24.150Z,95891.66
2022-12-09T10:42:12.181Z,95892.19
2022-12-09T10:44:39.688Z,95883.47
2022-12-09T10:47:34.874Z,95881.78
2022-12-09T10:50:02.025Z,95874.56
2022-12-09T10:52:36.307Z,95865.09
2022-12-09T10:55:03.109Z,95872.66
2022-12-09T10:57:29.904Z,95872.72
2022-12-09T11:00:19.836Z,95872.06
2022-12-09T11:02:52.255Z,95874.47
2022-12-09T11:05:27.892Z,95872.19
2022-12-09T11:07:58.347Z,95865.41
2022-12-09T11:10:28.055Z,95876.13
2022-12-09T11:13:06.222Z,95867.13
2022-12-09T11:15:43.818Z,95866.22
2022-12-09T11:18:21.315Z,95859.31
2022-12-09T11:21:00.085Z,95854.66
2022-12-09T11:23:28.126Z,95850.84
2022-12-09T11:25:57.759Z,95852.69
2022-12-09T11:28:33.637Z,95852.25
2022-12-09T11:31:28.495Z,95858.06
2022-12-09T11:33:53.299Z,95845.53
2022-12-09T11:36:24.467Z,95842.56
2022-12-09T11:39:06.755Z,95836.66
2022-12-09T11:41:51.907Z,95839.00
2022-12-09T11:44:31.479Z,95842.66
2022-12-09T11:47:12.317Z,95833.47
2022-12-09T11:50:14.257Z,95829.38
2022-12-09T11:52:40.879Z,95832.19
2022-12-09T11:55:21.422Z,95831.81
2022-12-09T11:57:55.454Z,95822.53
2022-12-09T12:00:30.488Z,95825.56
2022-12-09T12:03:26.393Z,95819.56
2022-12-09T12:05:55.075Z,95820.59
2022-12-09T12:08:29.749Z,95813.22
2022-12-09T12:11:14.924Z,95821.84
2022-12-09T12:13:46.495Z,95818.81
2022-12-09T12:16:31.555Z,95820.84
2022-12-09T12:19:13.574Z,95816.38
2022-12-09T12:21:52.038Z,95805.88
2022-12-09T12:24:43.636Z,95820.44
2022-12-09T12:28:05.371Z,95830.44
2022-12-09T12:30:55.103Z,95826.06
2022-12-09T12:36:31.800Z,95817.66
2022-12-09T12:39:29.399Z,95813.09
2022-12-09T12:42:01.769Z,95804.22
2022-12-09T12:45:10.691Z,95812.41
2022-12-09T12:48:19.181Z,95814.34
2022-12-09T12:51:13.342Z,95816.09
2022-12-09T12:53:44.690Z,95822.03
2022-12-09T12:56:16.469Z,95816.22
2022-12-09T12:59:02.815Z,95819.16
2022-12-09T13:01:34.701Z,95824.63
2022-12-09T13:04:23.365Z,95826.53
2022-12-09T13:06:58.652Z,95832.09
2022-12-09T13:09:49.788Z,95827.75
2022-12-09T13:12:45.167Z,95829.88
2022-12-09T13:15:18.015Z,95832.25
2022-12-09T13:17:47.080Z,95820.41
2022-12-09T13:20:28.719Z,95827.97
2022-12-09T13:23:06.758Z,95828.53
2022-12-09T13:26:12.719Z,95827.50
2022-12-09T13:28:53.798Z,95826.53
2022-12-09T13:31:28.420Z,95831.00
2022-12-09T13:34:07.179Z,95830.44
2022-12-09T13:36:36.902Z,95829.19
2022-12-09T13:39:04.659Z,95827.34
2022-12-09T13:41:31.090Z,95835.19
2022-12-09T13:44:10.913Z,95832.25
2022-12-09T13:46:38.263Z,95836.88
2022-12-09T13:49:19.820Z,95833.50
2022-12-09T13:51:51.475Z,95836.81
2022-12-09T13:54:24.279Z,95834.75
2022-12-09T13:57:20.103Z,95834.91
2022-12-09T13:59:51.959Z,95830.69
2022-12-09T14:02:39.939Z,95829.88
2022-12-09T14:05:18.860Z,95832.81
2022-12-09T14:07:51.505Z,95837.56
2022-12-09T14:10:43.976Z,95834.47
2022-12-09T14:13:23.571Z,95842.34
2022-12-09T14:16:08.724Z,95852.78
2022-12-09T14:18:35.521Z,95835.78
2022-12-09T14:21:21.821Z,95842.28
2022-12-09T14:24:16.307Z,95842.00
2022-12-09T14:27:10.395Z,95843.84
2022-12-09T14:29:46.557Z,95846.44
2022-12-09T14:32:20.507Z,95840.84
2022-12-09T14:35:09.739Z,95849.03
2022-12-09T14:38:00.472Z,95848.72
2022-12-09T14:40:35.706Z,95850.88
2022-12-09T14:43:04.798Z,95852.13
2022-12-09T14:45:47.866Z,95860.53
2022-12-09T14:48:21.196Z,95859.50
2022-12-09T14:50:47.646Z,95863.63
2022-12-09T14:53:23.727Z,95864.03
2022-12-09T14:55:51.206Z,95869.97
2022-12-09T14:58:24.309Z,95868.50
2022-12-09T15:01:02.615Z,95884.09
2022-12-09T15:03:34.414Z,95877.38
2022-12-09T15:06:12.609Z,95881.38
2022-12-09T15:08:41.461Z,95882.63
2022-12-09T15:11:20.722Z,95876.72
2022-12-09T15:13:50.167Z,95872.84
2022-12-09T15:16:20.904Z,95888.25
2022-12-09T15:18:48.642Z,95888.66
2022-12-09T15:21:25.216Z,95890.19
2022-12-09T15:23:51.883Z,95888.88
2022-12-09T15:26:22.402Z,95883.19
2022-12-09T15:28:51.941Z,95884.31
2022-12-09T15:31:21.508Z,95883.06
2022-12-09T15:33:50.713Z,95888.59
2022-12-09T15:36:26.184Z,95889.44
2022-12-09T15:39:01.800Z,95888.59
2022-12-09T15:41:56.959Z,95899.50
2022-12-09T15:44:25.651Z,95890.06
2022-12-09T15:46:55.527Z,95895.66
2022-12-09T15:49:28.078Z,95892.84
2022-12-09T15:51:56.440Z,95895.25
2022-12-09T15:54:35.586Z,95893.84
2022-12-09T15:57:04.109Z,95894.81
2022-12-09T15:59:38.363Z,95901.00
2022-12-09T16:02:07.443Z,95898.34
2022-12-09T16:04:55.011Z,95902.81
2022-12-09T16:07:25.152Z,95912.06
2022-12-09T16:10:03.699Z,95907.78
2022-12-09T16:12:35.226Z,95901.19
2022-12-09T16:15:03.161Z,95911.44
2022-12-09T16:17:32.290Z,95906.34
2022-12-09T16:19:58.925Z,95900.22
2022-12-09T16:22:29.732Z,95901.25
2022-12-09T16:25:15.329Z,95902.88
2022-12-09T16:27:48.653Z,95902.00
2022-12-09T16:30:21.256Z,95910.19
2022-12-09T16:32:51.899Z,95907.91
2022-12-09T16:35:20.499Z,95908.66
2022-12-09T16:37:55.739Z,95909.84
2022-12-09T16:40:22.396Z,95906.38
2022-12-09T16:42:50.695Z,95910.44
2022-12-09T16:45:21.780Z,95917.44
2022-12-09T16:47:53.454Z,95909.31
2022-12-09T16:50:21.040Z,95919.59
2022-12-09T16:52:47.586Z,95911.44
2022-12-09T16:55:25.180Z,95915.13
2022-12-09T16:57:52.112Z,95920.25
2022-12-09T17:00:18.723Z,95911.50
2022-12-09T17:02:50.560Z,95921.28
2022-12-09T17:05:17.145Z,95915.97
2022-12-09T17:07:43.708Z,95923.72
2022-12-09T17:10:14.381Z,95919.59
2022-12-09T17:12:40.933Z,95915.47
2022-12-09T17:15:07.946Z,95908.91
2022-12-09T17:17:34.418Z,95920.53
2022-12-09T17:20:01.033Z,95920.78
2022-12-09T17:22:27.639Z,95925.50
2022-12-09T17:24:54.051Z,95925.34
2022-12-09T17:27:20.476Z,95924.66
2022-12-09T17:29:46.958Z,95921.97
2022-12-09T17:32:13.975Z,95926.25
2022-12-09T17:34:40.528Z,95922.63
2022-12-09T17:37:07.483Z,95924.84
2022-12-09T17:39:34.118Z,95932.91
2022-12-09T17:42:01.004Z,95930.19
2022-12-09T17:44:28.003Z,95925.06
2022-12-09T17:46:55.852Z,95929.81
2022-12-09T17:49:22.671Z,95942.56
2022-12-09T17:51:49.103Z,95941.53
2022-12-09T17:54:15.487Z,95944.75
2022-12-09T17:56:42.915Z,95937.25
2022-12-09T17:59:12.984Z,95939.50
2022-12-09T18:01:41.137Z,95939.75
2022-12-09T18:04:10.189Z,95940.75
2022-12-09T18:06:43.221Z,95947.28
2022-12-09T18:09:13.229Z,95950.16
2022-12-09T18:11:40.546Z,95950.59
2022-12-09T18:14:07.860Z,95951.84
2022-12-09T18:16:34.587Z,95953.41
2022-12-09T18:19:07.040Z,95954.88
2022-12-09T18:21:34.142Z,95963.84
2022-12-09T18:24:00.607Z,95966.72
2022-12-09T18:26:31.166Z,95966.81
2022-12-09T18:28:58.949Z,95969.09
2022-12-09T18:31:25.852Z,95970.78
2022-12-09T18:33:52.666Z,95976.03
2022-12-09T18:36:27.441Z,95975.06
2022-12-09T18:38:54.056Z,95977.09
2022-12-09T18:41:23.563Z,95971.91
2022-12-09T18:43:52.446Z,95975.41
2022-12-09T18:46:25.493Z,95982.56
2022-12-09T18:49:00.324Z,95971.38
2022-12-09T18:51:27.571Z,95973.59
2022-12-09T18:53:54.371Z,95979.53
2022-12-09T18:56:20.817Z,95968.44
2022-12-09T18:59:06.010Z,95963.84
2022-12-09T19:01:35.645Z,95971.66
2022-12-09T19:04:04.223Z,95971.81
2022-12-09T19:06:35.918Z,95976.09
2022-12-09T19:09:04.153Z,95971.38
2022-12-09T19:11:34.872Z,95972.56
2022-12-09T19:14:01.752Z,95971.81
2022-12-09T19:16:29.127Z,95979.06
2022-12-09T19:18:56.947Z,95978.00
2022-12-09T19:21:24.908Z,95968.56
2022-12-09T19:23:51.606Z,95974.84
2022-12-09T19:26:23.495Z,95973.66
2022-12-09T19:28:56.020Z,95969.38
2022-12-09T19:31:28.636Z,95969.81
2022-12-09T19:34:15.716Z,95968.25
2022-12-09T19:36:43.304Z,95973.78
2022-12-09T19:39:11.339Z,95982.31
2022-12-09T19:41:38.356Z,95982.31
2022-12-09T19:44:05.320Z,95980.66
2022-12-09T19:46:32.355Z,95981.97
2022-12-09T19:48:59.201Z,95990.16
2022-12-09T19:51:26.810Z,95990.34
2022-12-09T19:53:55.083Z,95991.13
2022-12-09T19:56:22.071Z,95997.53
2022-12-09T19:58:48.640Z,95995.69
2022-12-09T20:01:17.942Z,96007.72
2022-12-09T20:03:46.681Z,96002.38
2022-12-09T20:06:15.986Z,96004.66
2022-12-09T20:08:43.141Z,96004.06
2022-12-09T20:11:13.617Z,96008.03
2022-12-09T20:13:40.548Z,96010.47
2022-12-09T20:16:10.901Z,96006.81
2022-12-09T20:18:37.903Z,96017.56
2022-12-09T20:21:06.522Z,96006.63
2022-12-09T20:23:35.435Z,96008.25
2022-12-09T20:26:23.887Z,96009.13
2022-12-09T20:28:52.331Z,96015.63
2022-12-09T20:31:21.892Z,96015.19
2022-12-09T20:33:52.366Z,96009.84
2022-12-09T20:36:21.095Z,96018.06
2022-12-09T20:38:50.066Z,96020.28
2022-12-09T20:41:16.731Z,96016.38
2022-12-09T20:43:45.293Z,96008.59
2022-12-09T20:46:14.475Z,96015.59
2022-12-09T20:48:42.240Z,96028.28
2022-12-09T20:51:14.975Z,96022.75
2022-12-09T20:53:43.111Z,96018.47
2022-12-09T20:56:10.628Z,96016.38
2022-12-09T20:58:37.890Z,96018.81
2022-12-09T21:01:09.339Z,96015.94
2022-12-09T21:03:35.993Z,96025.25
2022-12-09T21:06:02.606Z,96022.75
2022-12-09T21:08:31.816Z,96027.69
2022-12-09T21:11:12.316Z,96024.34
2022-12-09T21:13:40.723Z,96029.31
2022-12-09T21:16:13.404Z,96020.06
2022-12-09T21:18:39.940Z,96015.78
2022-12-09T21:21:06.417Z,96013.56
2022-12-09T21:23:35.342Z,96013.34
2022-12-09T21:26:10.564Z,96019.31
2022-12-09T21:28:38.467Z,96014.22
2022-12-09T21:31:07.861Z,96014.38
2022-12-09T21:33:35.238Z,96018.47
2022-12-09T21:36:05.627Z,96021.13
2022-12-09T21:38:32.023Z,96025.03
2022-12-09T21:41:03.079Z,96022.75
2022-12-09T21:43:29.655Z,96030.34
2022-12-09T21:45:56.116Z,96023.78
2022-12-09T21:48:22.580Z,96031.75
2022-12-09T21:50:58.994Z,96025.25
2022-12-09T21:53:25.552Z,96026.13
2022-12-09T21:55:52.249Z,96034.38
2022-12-09T21:58:19.167Z,96039.47
2022-12-09T22:00:46.097Z,96039.69
2022-12-09T22:03:13.107Z,96048.66
2022-12-09T22:05:39.524Z,96044.19
2022-12-09T22:08:05.972Z,96049.53
2022-12-09T22:10:36.280Z,96049.69
2022-12-09T22:13:02.712Z,96057.25
2022-12-09T22:15:29.973Z,96052.50
2022-12-09T22:17:56.491Z,96049.06
2022-12-09T22:21:00.570Z,96047.63
2022-12-09T22:23:09.738Z,96059.84
2022-12-09T22:25:40.449Z,96063.97
2022-12-09T22:28:06.911Z,96065.00
2022-12-09T22:30:36.357Z,96063.97
2022-12-09T22:33:03.264Z,96070.34
2022-12-09T22:35:29.951Z,96064.41
2022-12-09T22:37:59.090Z,96067.88
2022-12-09T22:40:25.953Z,96066.22
2022-12-09T22:42:52.428Z,96063.78
2022-12-09T22:45:18.902Z,96068.06
2022-12-09T22:47:45.377Z,96068.94
2022-12-09T22:50:12.951Z,96068.31
2022-12-09T22:52:39.496Z,96064.81
2022-12-09T22:55:06.339Z,96065.44
2022-12-09T22:57:32.795Z,96068.69
2022-12-09T22:59:59.207Z,96058.03
2022-12-09T23:02:25.839Z,96061.75
2022-12-09T23:04:52.352Z,96064.78
2022-12-09T23:07:18.752Z,96056.03
2022-12-09T23:09:45.178Z,96058.50
2022-12-09T23:12:11.992Z,96055.88
2022-12-09T23:14:38.720Z,96059.31
2022-12-09T23:17:06.963Z,96065.59
2022-12-09T23:19:33.585Z,96055.84
2022-12-09T23:21:59.992Z,96062.59
2022-12-09T23:24:26.416Z,96070.19
2022-12-09T23:26:55.805Z,96063.47
2022-12-09T23:29:22.771Z,96061.25
2022-12-09T23:31:49.628Z,96064.72
2022-12-09T23:34:16.614Z,96059.00
2022-12-09T23:36:44.574Z,96053.22
2022-12-09T23:39:15.458Z,96054.22
2022-12-09T23:41:44.003Z,96045.25
2022-12-09T23:44:15.615Z,96045.81
2022-12-09T23:46:42.854Z,96048.31
2022-12-09T23:49:09.756Z,96046.69
2022-12-09T23:51:39.872Z,96051.19
2022-12-09T23:54:08.419Z,96051.97
2022-12-09T23:56:38.887Z,96056.66
2022-12-09T23:59:07.915Z,96057.72
